FZAA/FIH METAR and TAF weather

Enter ICAO airport designator
Station Type Date Time Source
FZAA METAR 2021/07/28 19:00 UTC NOAA

FZAA 281900Z 00000KT 6000 NSC 26/21 Q1013 NOSIG


Station Type Date Time Source
FZAA Decoded METAR 2021/07/28 19:00 UTC NOAA

Kinshasa / N'Djili, Congo, Democratic Republic of the (FZAA) 04-23S 015-26E 312M
Jul 28, 2021 - 03:00 PM EDT / 2021.07.28 1900 UTC
Wind: Calm:0
Visibility: 3 mile(s):0
Temperature: 78 F (26 C)
Dew Point: 69 F (21 C)
Relative Humidity: 73%
Pressure (altimeter): 29.91 in. Hg (1013 hPa)
ob: FZAA 281900Z 00000KT 6000 NSC 26/21 Q1013 NOSIG
cycle: 19

Station Type Date Time Source
FZAA TAF 2021/07/28 18:48 UTC NOAA

TAF TAF FZAA 281700Z 2818/2924 26006KT 6000 NSC
BECMG 2904/2906 4000 BR BKN014
BECMG 2910/2912 6000 NSW FEW020

Example: see airport list